createdAt,value
2019-01-24T00:00:00.202Z,-5.50
2019-01-24T00:03:10.057Z,-5.60
2019-01-24T00:05:58.966Z,-5.60
2019-01-24T00:08:41.295Z,-5.70
2019-01-24T00:11:30.216Z,-5.70
2019-01-24T00:14:19.234Z,-5.80
2019-01-24T00:17:09.860Z,-5.80
2019-01-24T00:19:58.886Z,-6.00
2019-01-24T00:22:47.871Z,-6.00
2019-01-24T00:25:37.041Z,-6.00
2019-01-24T00:28:26.110Z,-6.10
2019-01-24T00:31:15.029Z,-6.20
2019-01-24T00:34:03.968Z,-6.20
2019-01-24T00:36:52.811Z,-6.30
2019-01-24T00:40:01.115Z,-6.40
2019-01-24T00:43:09.395Z,-6.40
2019-01-24T00:45:58.251Z,-6.50
2019-01-24T00:48:47.261Z,-6.50
2019-01-24T00:51:55.617Z,-6.50
2019-01-24T00:55:24.633Z,-6.60
2019-01-24T00:58:13.602Z,-6.70
2019-01-24T01:01:02.675Z,-6.70
2019-01-24T01:04:10.946Z,-6.80
2019-01-24T01:07:10.866Z,-6.70
2019-01-24T01:09:59.792Z,-6.70
2019-01-24T01:12:48.861Z,-6.70
2019-01-24T01:15:57.162Z,-6.70
2019-01-24T01:18:46.148Z,-6.70
2019-01-24T01:21:35.159Z,-6.80
2019-01-24T01:24:43.439Z,-6.90
2019-01-24T01:27:32.519Z,-6.90
2019-01-24T01:30:42.094Z,-6.80
2019-01-24T01:33:31.091Z,-6.80
2019-01-24T01:36:19.174Z,-6.80
2019-01-24T01:39:07.124Z,-6.80
2019-01-24T01:41:55.096Z,-6.70
2019-01-24T01:44:43.091Z,-6.60
2019-01-24T01:47:31.231Z,-6.60
2019-01-24T01:50:38.638Z,-6.50
2019-01-24T01:53:26.591Z,-6.50
2019-01-24T01:56:14.619Z,-6.50
2019-01-24T01:59:02.648Z,-6.40
2019-01-24T02:01:50.678Z,-6.30
2019-01-24T02:04:42.957Z,-6.30
2019-01-24T02:07:42.634Z,-6.30
2019-01-24T02:14:04.011Z,-6.40
2019-01-24T02:16:45.742Z,-6.30
2019-01-24T02:19:27.375Z,-6.30
2019-01-24T02:22:09.083Z,-6.30
2019-01-24T02:24:52.206Z,-6.30
2019-01-24T02:27:34.024Z,-6.20
2019-01-24T02:30:15.588Z,-6.20
2019-01-24T02:32:57.536Z,-6.20
2019-01-24T02:35:39.544Z,-6.10
2019-01-24T02:38:21.555Z,-6.10
2019-01-24T02:41:02.904Z,-6.20
2019-01-24T02:43:44.027Z,-6.10
2019-01-24T02:46:25.206Z,-6.10
2019-01-24T02:49:07.511Z,-6.10
2019-01-24T02:51:49.419Z,-6.00
2019-01-24T02:54:29.017Z,-6.00
2019-01-24T02:57:17.012Z,-5.90
2019-01-24T03:00:06.662Z,-5.90
2019-01-24T03:03:14.091Z,-5.80
2019-01-24T03:06:02.068Z,-5.80
2019-01-24T03:08:43.902Z,-5.70
2019-01-24T03:11:25.971Z,-5.70
2019-01-24T03:14:07.900Z,-5.60
2019-01-24T03:16:49.266Z,-5.50
2019-01-24T03:19:30.856Z,-5.50
2019-01-24T03:22:12.865Z,-5.40
2019-01-24T03:24:52.599Z,-5.40
2019-01-24T03:27:40.708Z,-5.40
2019-01-24T03:30:48.115Z,-5.30
2019-01-24T03:33:55.499Z,-5.30
2019-01-24T03:36:43.579Z,-5.30
2019-01-24T03:39:31.578Z,-5.30
2019-01-24T03:42:38.990Z,-5.30
2019-01-24T03:45:46.529Z,-5.30
2019-01-24T03:48:34.457Z,-5.30
2019-01-24T03:51:22.428Z,-5.20
2019-01-24T03:54:29.814Z,-5.20
2019-01-24T03:57:37.227Z,-5.10
2019-01-24T04:00:44.611Z,-5.00
2019-01-24T04:03:32.572Z,-5.00
2019-01-24T04:06:39.979Z,-5.00
2019-01-24T04:09:22.971Z,-5.00
2019-01-24T04:12:04.777Z,-5.00
2019-01-24T04:14:46.805Z,-5.00
2019-01-24T04:17:28.771Z,-4.90
2019-01-24T04:20:10.323Z,-4.90
2019-01-24T04:22:51.578Z,-4.90
2019-01-24T04:25:33.112Z,-4.80
2019-01-24T04:28:14.406Z,-4.70
2019-01-24T04:30:56.284Z,-4.70
2019-01-24T04:33:38.234Z,-4.70
2019-01-24T04:36:20.196Z,-4.60
2019-01-24T04:39:01.526Z,-4.70
2019-01-24T04:41:42.914Z,-4.60
2019-01-24T04:44:24.891Z,-4.60
2019-01-24T04:47:06.865Z,-4.70
2019-01-24T04:49:48.847Z,-4.70
2019-01-24T04:52:30.066Z,-4.70
2019-01-24T04:55:11.983Z,-4.60
2019-01-24T04:57:54.923Z,-4.60
2019-01-24T05:00:36.607Z,-4.70
2019-01-24T05:03:16.294Z,-4.70
2019-01-24T05:06:04.388Z,-4.70
2019-01-24T05:08:45.860Z,-4.80
2019-01-24T05:11:27.863Z,-4.70
2019-01-24T05:14:07.483Z,-4.70
2019-01-24T05:16:55.524Z,-4.70
2019-01-24T05:20:02.914Z,-4.70
2019-01-24T05:23:10.322Z,-4.70
2019-01-24T05:25:58.283Z,-4.80
2019-01-24T05:28:46.248Z,-4.70
2019-01-24T05:31:34.286Z,-4.70
2019-01-24T05:34:22.295Z,-4.60
2019-01-24T05:37:10.275Z,-4.60
2019-01-24T05:39:59.833Z,-4.60
2019-01-24T05:42:47.878Z,-4.60
2019-01-24T05:45:55.284Z,-4.50
2019-01-24T05:49:02.670Z,-4.50
2019-01-24T05:51:50.718Z,-4.60
2019-01-24T05:54:38.794Z,-4.60
2019-01-24T05:57:26.773Z,-4.50
2019-01-24T06:03:23.439Z,-4.40
2019-01-24T06:06:33.896Z,-4.40
2019-01-24T06:09:15.695Z,-4.40
2019-01-24T06:11:57.282Z,-4.40
2019-01-24T06:14:38.768Z,-4.40
2019-01-24T06:17:20.250Z,-4.30
2019-01-24T06:20:01.515Z,-4.40
2019-01-24T06:22:43.428Z,-4.30
2019-01-24T06:25:25.224Z,-4.30
2019-01-24T06:28:06.916Z,-4.20
2019-01-24T06:30:48.006Z,-4.20
2019-01-24T06:33:29.992Z,-4.20
2019-01-24T06:36:11.868Z,-5.10
2019-01-24T06:38:53.855Z,-4.20
2019-01-24T06:41:35.815Z,-4.30
2019-01-24T06:44:17.782Z,-4.30
2019-01-24T06:46:47.357Z,-4.30
2019-01-24T06:49:36.312Z,-4.20
2019-01-24T06:52:25.307Z,-4.20
2019-01-24T06:55:34.970Z,-4.20
2019-01-24T06:58:23.978Z,-4.10
2019-01-24T07:01:12.975Z,-4.20
2019-01-24T07:04:01.849Z,-4.10
2019-01-24T07:06:52.386Z,-4.10
2019-01-24T07:09:34.867Z,-4.00
2019-01-24T07:12:23.719Z,-4.10
2019-01-24T07:15:33.322Z,-4.10
2019-01-24T07:18:22.179Z,-4.00
2019-01-24T07:21:11.283Z,-4.00
2019-01-24T07:24:00.230Z,-4.00
2019-01-24T07:26:49.120Z,-4.00
2019-01-24T07:29:38.061Z,-4.00
2019-01-24T07:32:26.982Z,-4.10
2019-01-24T07:35:35.326Z,-4.10
2019-01-24T07:38:24.259Z,-4.10
2019-01-24T07:41:32.622Z,-4.20
2019-01-24T07:44:21.536Z,-4.10
2019-01-24T07:47:12.030Z,-4.10
2019-01-24T07:50:02.527Z,-4.10
2019-01-24T07:52:51.634Z,-4.00
2019-01-24T07:55:42.136Z,-4.10
2019-01-24T07:58:50.467Z,-4.00
2019-01-24T08:01:39.411Z,-4.00
2019-01-24T08:04:28.323Z,-3.90
2019-01-24T08:07:18.888Z,-3.90
2019-01-24T08:10:27.162Z,-3.90
2019-01-24T08:13:16.192Z,-3.90
2019-01-24T08:16:05.194Z,-3.80
2019-01-24T08:18:54.072Z,-3.80
2019-01-24T08:21:42.951Z,-3.80
2019-01-24T08:24:51.402Z,-3.90
2019-01-24T08:27:40.378Z,-3.90
2019-01-24T08:31:01.964Z,-3.80
2019-01-24T08:34:00.060Z,-3.80
2019-01-24T08:36:50.605Z,-3.70
2019-01-24T08:39:39.640Z,-3.70
2019-01-24T08:42:28.608Z,-3.60
2019-01-24T08:45:17.680Z,-3.60
2019-01-24T08:48:26.039Z,-3.70
2019-01-24T08:51:14.954Z,-3.80
2019-01-24T08:54:03.861Z,-3.80
2019-01-24T08:57:12.171Z,-3.80
2019-01-24T09:00:01.056Z,-3.80
2019-01-24T09:02:50.469Z,-3.60
2019-01-24T09:05:39.478Z,-3.60
2019-01-24T09:08:22.202Z,-3.60
2019-01-24T09:11:11.067Z,-3.50
2019-01-24T09:13:59.966Z,-3.40
2019-01-24T09:16:48.924Z,-3.30
2019-01-24T09:19:37.962Z,-3.40
2019-01-24T09:22:26.807Z,-3.30
2019-01-24T09:25:16.063Z,-3.30
2019-01-24T09:28:05.059Z,-3.40
2019-01-24T09:31:13.341Z,-3.40
2019-01-24T09:34:03.979Z,-3.30
2019-01-24T09:36:52.838Z,-3.20
2019-01-24T09:39:41.807Z,-3.20
2019-01-24T09:42:30.718Z,-3.10
2019-01-24T09:45:40.378Z,-3.00
2019-01-24T09:48:29.250Z,-2.90
2019-01-24T09:51:18.204Z,-3.00
2019-01-24T09:54:07.115Z,-2.90
2019-01-24T09:56:55.971Z,-2.90
2019-01-24T09:59:44.888Z,-2.80
2019-01-24T10:02:33.947Z,-2.70
2019-01-24T10:05:22.943Z,-2.80
2019-01-24T10:08:11.917Z,-2.70
2019-01-24T10:11:00.887Z,-2.60
2019-01-24T10:13:49.805Z,-2.60
2019-01-24T10:16:38.682Z,-2.60
2019-01-24T10:19:46.943Z,-2.80
2019-01-24T10:22:35.879Z,-2.80
2019-01-24T10:25:44.073Z,-2.70
2019-01-24T10:28:46.330Z,-2.60
2019-01-24T10:31:35.199Z,-2.50
2019-01-24T10:34:43.566Z,-2.50
2019-01-24T10:37:51.927Z,-2.50
2019-01-24T10:41:00.187Z,-2.50
2019-01-24T10:43:49.195Z,-2.50
2019-01-24T10:46:38.055Z,-2.40
2019-01-24T10:49:27.025Z,-2.40
2019-01-24T10:52:15.947Z,-2.40
2019-01-24T10:55:25.561Z,-2.20
2019-01-24T10:58:14.495Z,-2.20
2019-01-24T11:01:03.531Z,-2.10
2019-01-24T11:03:54.219Z,-2.10
2019-01-24T11:06:49.860Z,-2.00
2019-01-24T11:09:46.515Z,-2.10
2019-01-24T11:12:35.363Z,-2.10
2019-01-24T11:15:24.826Z,-2.10
2019-01-24T11:18:13.831Z,-2.10
2019-01-24T11:21:22.200Z,-2.30
2019-01-24T11:24:11.210Z,-2.50
2019-01-24T11:27:00.387Z,-2.60
2019-01-24T11:29:49.315Z,-2.60
2019-01-24T11:32:39.839Z,-2.60
2019-01-24T11:35:49.577Z,-2.60
2019-01-24T11:38:38.600Z,-2.60
2019-01-24T11:41:27.667Z,-2.50
2019-01-24T11:44:36.161Z,-2.40
2019-01-24T11:47:46.120Z,-2.30
2019-01-24T11:50:54.410Z,-2.30
2019-01-24T11:53:44.896Z,-2.10
2019-01-24T11:56:33.858Z,-2.10
2019-01-24T11:59:22.778Z,-2.00
2019-01-24T12:02:31.076Z,-2.00
2019-01-24T12:05:39.686Z,-2.20
2019-01-24T12:08:22.600Z,-2.20
2019-01-24T12:11:11.683Z,-2.30
2019-01-24T12:14:02.196Z,-2.30
2019-01-24T12:16:51.112Z,-2.40
2019-01-24T12:19:40.922Z,-2.60
2019-01-24T12:22:29.838Z,-2.60
2019-01-24T12:28:46.161Z,-2.60
2019-01-24T12:31:35.041Z,-2.40
2019-01-24T12:38:28.559Z,-2.20
2019-01-24T12:41:19.089Z,-2.20
2019-01-24T12:44:27.420Z,-2.10
2019-01-24T12:47:16.350Z,-2.00
2019-01-24T12:50:25.940Z,-1.90
2019-01-24T12:53:14.951Z,-1.80
2019-01-24T12:56:03.937Z,-1.80
2019-01-24T12:59:12.307Z,-1.70
2019-01-24T13:02:01.251Z,-1.50
2019-01-24T13:04:50.199Z,-1.40
2019-01-24T13:07:33.006Z,-1.30
2019-01-24T13:10:22.896Z,-1.40
2019-01-24T13:13:11.773Z,-1.50
2019-01-24T13:16:00.773Z,-1.40
2019-01-24T13:19:09.142Z,-1.30
2019-01-24T13:21:58.081Z,-1.10
2019-01-24T13:24:47.148Z,-1.10
2019-01-24T13:27:36.094Z,-1.10
2019-01-24T13:30:45.715Z,-1.20
2019-01-24T13:33:34.606Z,-1.40
2019-01-24T13:36:42.971Z,-1.40
2019-01-24T13:39:31.842Z,-1.40
2019-01-24T13:42:20.767Z,-1.50
2019-01-24T13:45:30.392Z,-1.50
2019-01-24T13:48:19.385Z,-1.40
2019-01-24T13:51:08.401Z,-1.30
2019-01-24T13:53:57.316Z,-1.30
2019-01-24T13:56:46.269Z,-1.40
2019-01-24T13:59:35.163Z,-1.50
2019-01-24T14:02:24.137Z,-1.50
2019-01-24T14:05:33.747Z,-1.70
2019-01-24T14:08:24.301Z,-1.70
2019-01-24T14:11:18.269Z,-1.80
2019-01-24T14:14:24.900Z,-1.80
2019-01-24T14:17:15.551Z,-1.80
2019-01-24T14:20:25.146Z,-1.70
2019-01-24T14:23:14.243Z,-1.80
2019-01-24T14:26:03.284Z,-1.80
2019-01-24T14:28:54.231Z,-1.80
2019-01-24T14:31:43.199Z,-1.90
2019-01-24T14:34:33.783Z,-2.10
2019-01-24T14:37:24.418Z,-2.00
2019-01-24T14:40:32.688Z,-2.10
2019-01-24T14:43:21.735Z,-2.10
2019-01-24T14:46:10.727Z,-2.10
2019-01-24T14:48:59.843Z,-2.20
2019-01-24T14:51:50.886Z,-2.20
2019-01-24T14:55:12.942Z,-2.20
2019-01-24T14:58:09.300Z,-2.20
2019-01-24T15:01:19.128Z,-2.20
2019-01-24T15:04:08.278Z,-2.20
2019-01-24T15:06:57.267Z,-2.30
2019-01-24T15:09:39.759Z,-2.30
2019-01-24T15:12:28.643Z,-2.30
2019-01-24T15:15:39.851Z,-2.30
2019-01-24T15:18:48.328Z,-2.30
2019-01-24T15:25:25.318Z,-2.10
2019-01-24T15:28:33.708Z,-2.20
2019-01-24T15:31:22.692Z,-2.20
2019-01-24T15:34:13.202Z,-2.20
2019-01-24T15:36:42.856Z,-2.20
2019-01-24T15:39:33.377Z,-2.30
2019-01-24T15:42:22.411Z,-2.30
2019-01-24T15:45:32.140Z,-2.30
2019-01-24T15:48:22.667Z,-2.40
2019-01-24T15:51:11.594Z,-2.40
2019-01-24T15:54:02.174Z,-2.40
2019-01-24T15:56:52.728Z,-2.40
2019-01-24T15:59:43.396Z,-2.50
2019-01-24T16:02:51.739Z,-2.50
2019-01-24T16:05:40.835Z,-2.50
2019-01-24T16:08:24.575Z,-2.50
2019-01-24T16:11:13.643Z,-2.50
2019-01-24T16:14:04.411Z,-2.50
2019-01-24T16:16:56.392Z,-2.50
2019-01-24T16:19:45.413Z,-2.60
2019-01-24T16:22:34.378Z,-2.70
2019-01-24T16:25:43.999Z,-2.70
2019-01-24T16:28:34.560Z,-2.80
2019-01-24T16:31:25.151Z,-2.80
2019-01-24T16:34:15.649Z,-2.80
2019-01-24T16:37:04.659Z,-2.70
2019-01-24T16:40:33.707Z,-2.70
2019-01-24T16:43:22.647Z,-2.70
2019-01-24T16:46:29.360Z,-2.80
2019-01-24T16:49:18.403Z,-2.90
2019-01-24T16:52:26.700Z,-2.90
2019-01-24T16:55:16.491Z,-2.90
2019-01-24T16:58:05.942Z,-2.90
2019-01-24T17:01:14.321Z,-3.00
2019-01-24T17:04:03.240Z,-2.90
2019-01-24T17:06:53.738Z,-2.90
2019-01-24T17:09:36.123Z,-2.80
2019-01-24T17:12:25.180Z,-2.80
2019-01-24T17:15:34.797Z,-2.80
2019-01-24T17:18:23.755Z,-2.80
2019-01-24T17:21:12.747Z,-2.80
2019-01-24T17:24:01.743Z,-2.80
2019-01-24T17:26:50.729Z,-2.90
2019-01-24T17:29:59.126Z,-2.90
2019-01-24T17:32:49.860Z,-2.80
2019-01-24T17:35:58.141Z,-2.80
2019-01-24T17:38:47.066Z,-2.80
2019-01-24T17:41:36.055Z,-2.90
2019-01-24T17:44:25.018Z,-2.90
2019-01-24T17:47:13.880Z,-2.90
2019-01-24T17:50:02.860Z,-2.80
2019-01-24T17:52:51.942Z,-2.80
2019-01-24T17:56:00.348Z,-2.80
2019-01-24T17:58:50.932Z,-2.90
2019-01-24T18:08:08.447Z,-2.90
2019-01-24T18:10:52.617Z,-2.80
2019-01-24T18:13:41.619Z,-2.80
2019-01-24T18:16:30.596Z,-2.80
2019-01-24T18:19:38.963Z,-2.80
2019-01-24T18:22:27.829Z,-2.80
2019-01-24T18:28:17.920Z,-2.80
2019-01-24T18:37:31.169Z,-2.70
2019-01-24T18:40:40.791Z,-2.70
2019-01-24T18:46:39.459Z,-2.70
2019-01-24T18:49:30.087Z,-2.60
2019-01-24T18:52:19.103Z,-2.60
2019-01-24T18:55:08.479Z,-2.70
2019-01-24T18:57:57.622Z,-2.70
2019-01-24T19:00:46.727Z,-2.70
2019-01-24T19:03:35.785Z,-2.80
2019-01-24T19:06:44.183Z,-2.80
2019-01-24T19:09:26.596Z,-2.90
2019-01-24T19:12:15.573Z,-2.90
2019-01-24T19:15:25.225Z,-2.90
2019-01-24T19:21:14.771Z,-2.80
2019-01-24T19:24:03.719Z,-2.70
2019-01-24T19:26:52.666Z,-2.70
2019-01-24T19:29:41.753Z,-2.70
2019-01-24T19:32:50.115Z,-2.70
2019-01-24T19:35:40.669Z,-2.70
2019-01-24T19:38:29.595Z,-2.90
2019-01-24T19:41:20.159Z,-2.90
2019-01-24T19:44:15.646Z,-2.90
2019-01-24T19:47:20.912Z,-2.90
2019-01-24T19:50:30.631Z,-2.90
2019-01-24T19:53:19.664Z,-2.80
2019-01-24T19:56:08.657Z,-2.90
2019-01-24T19:58:57.790Z,-2.90
2019-01-24T20:01:46.731Z,-2.90
2019-01-24T20:04:37.406Z,-2.90
2019-01-24T20:07:26.367Z,-2.80
2019-01-24T20:10:28.882Z,-2.80
2019-01-24T20:13:18.006Z,-2.80
2019-01-24T20:16:07.003Z,-2.80
2019-01-24T20:18:56.011Z,-2.80
2019-01-24T20:21:44.901Z,-2.80
2019-01-24T20:24:33.923Z,-2.80
2019-01-24T20:27:22.937Z,-2.80
2019-01-24T20:30:34.261Z,-2.90
2019-01-24T20:33:42.559Z,-2.90
2019-01-24T20:36:31.563Z,-2.80
2019-01-24T20:39:20.729Z,-2.80
2019-01-24T20:45:30.958Z,-2.80
2019-01-24T20:48:21.442Z,-2.70
2019-01-24T20:54:32.303Z,-2.70
2019-01-24T20:57:21.317Z,-2.70
2019-01-24T21:00:30.999Z,-2.60
2019-01-24T21:03:20.306Z,-2.60
2019-01-24T21:06:10.872Z,-2.70
2019-01-24T21:08:53.581Z,-2.60
2019-01-24T21:14:45.198Z,-2.70
2019-01-24T21:17:34.234Z,-2.70
2019-01-24T21:20:42.699Z,-2.70
2019-01-24T21:23:31.922Z,-2.80
2019-01-24T21:29:58.962Z,-2.70
2019-01-24T21:32:48.096Z,-2.70
2019-01-24T21:35:56.585Z,-2.70
2019-01-24T21:38:45.848Z,-2.80
2019-01-24T21:41:34.988Z,-2.80
2019-01-24T21:47:24.911Z,-2.80
2019-01-24T21:49:54.750Z,-2.80
2019-01-24T21:52:45.399Z,-2.80
2019-01-24T21:55:34.398Z,-2.80
2019-01-24T21:58:23.615Z,-2.80
2019-01-24T22:01:12.620Z,-2.80
2019-01-24T22:04:01.591Z,-2.80
2019-01-24T22:06:52.112Z,-2.80
2019-01-24T22:09:34.639Z,-2.90
2019-01-24T22:12:23.634Z,-2.90
2019-01-24T22:15:33.303Z,-3.00
2019-01-24T22:18:22.292Z,-2.90
2019-01-24T22:21:11.436Z,-2.90
2019-01-24T22:24:00.699Z,-2.90
2019-01-24T22:26:49.571Z,-3.00
2019-01-24T22:29:38.527Z,-2.90
2019-01-24T22:35:56.426Z,-3.00
2019-01-24T22:38:45.363Z,-2.90
2019-01-24T22:41:34.426Z,-2.90
2019-01-24T22:44:24.982Z,-3.00
2019-01-24T22:47:13.879Z,-2.90
2019-01-24T22:50:02.770Z,-2.90
2019-01-24T22:52:51.698Z,-2.90
2019-01-24T22:55:40.570Z,-2.90
2019-01-24T22:58:48.835Z,-3.00
2019-01-24T23:01:58.441Z,-2.90
2019-01-24T23:04:47.299Z,-3.00
2019-01-24T23:07:36.254Z,-2.90
2019-01-24T23:10:19.133Z,-2.90
2019-01-24T23:13:08.106Z,-2.90
2019-01-24T23:15:57.052Z,-2.90
2019-01-24T23:18:45.935Z,-2.90
2019-01-24T23:21:34.861Z,-2.90
2019-01-24T23:24:23.795Z,-2.80
2019-01-24T23:27:14.327Z,-2.90
2019-01-24T23:30:23.903Z,-2.80
2019-01-24T23:33:32.193Z,-3.30
2019-01-24T23:36:21.083Z,-2.80
2019-01-24T23:39:10.225Z,-2.90
2019-01-24T23:41:59.149Z,-2.90
2019-01-24T23:44:48.081Z,-2.90
2019-01-24T23:47:36.943Z,-2.80
2019-01-24T23:50:25.785Z,-2.80
2019-01-24T23:53:14.657Z,-2.80
2019-01-24T23:56:03.755Z,-2.80
2019-01-24T23:58:52.614Z,-2.80
